createdAt,value
2018-01-21T00:02:27.089Z,56.57
2018-01-21T00:04:55.726Z,56.63
2018-01-21T00:07:23.246Z,54.70
2018-01-21T00:09:51.129Z,46.13
2018-01-21T00:12:18.679Z,47.23
2018-01-21T00:14:46.197Z,37.47
2018-01-21T00:17:13.782Z,43.70
2018-01-21T00:19:41.385Z,36.63
2018-01-21T00:22:08.968Z,44.10
2018-01-21T00:24:36.569Z,40.00
2018-01-21T00:27:04.252Z,41.37
2018-01-21T00:29:32.017Z,34.13
2018-01-21T00:32:01.829Z,36.33
2018-01-21T00:34:29.491Z,33.60
2018-01-21T00:36:57.074Z,39.63
2018-01-21T00:39:24.633Z,37.07
2018-01-21T00:41:52.173Z,38.37
2018-01-21T00:44:19.692Z,37.63
2018-01-21T00:46:47.977Z,36.50
2018-01-21T00:49:16.276Z,44.63
2018-01-21T00:51:43.806Z,39.13
2018-01-21T00:54:12.426Z,41.87
2018-01-21T00:56:39.994Z,43.00
2018-01-21T00:59:07.567Z,36.80
2018-01-21T01:01:35.153Z,39.37
2018-01-21T01:04:03.182Z,38.97
2018-01-21T01:06:31.151Z,44.63
2018-01-21T01:08:58.763Z,40.17
2018-01-21T01:11:26.282Z,40.90
2018-01-21T01:13:53.813Z,48.50
2018-01-21T01:16:21.331Z,41.83
2018-01-21T01:18:48.892Z,47.70
2018-01-21T01:21:17.188Z,45.33
2018-01-21T01:23:45.477Z,52.20
2018-01-21T01:26:13.797Z,55.37
2018-01-21T01:28:41.326Z,43.40
2018-01-21T01:31:08.930Z,49.83
2018-01-21T01:33:36.507Z,48.20
2018-01-21T01:36:04.329Z,44.40
2018-01-21T01:38:32.149Z,39.07
2018-01-21T01:41:00.520Z,37.40
2018-01-21T01:43:28.109Z,49.17
2018-01-21T01:45:56.397Z,47.23
2018-01-21T01:48:23.921Z,48.53
2018-01-21T01:50:51.467Z,41.80
2018-01-21T01:53:19.000Z,47.63
2018-01-21T01:55:46.841Z,51.60
2018-01-21T01:58:14.385Z,50.50
2018-01-21T02:00:42.695Z,43.37
2018-01-21T02:03:10.288Z,46.70
2018-01-21T02:05:37.938Z,48.17
2018-01-21T02:08:05.682Z,51.80
2018-01-21T02:10:33.466Z,52.57
2018-01-21T02:13:01.289Z,48.83
2018-01-21T02:15:28.956Z,42.43
2018-01-21T02:17:57.236Z,42.83
2018-01-21T02:20:24.772Z,49.90
2018-01-21T02:22:53.057Z,42.97
2018-01-21T02:25:20.648Z,43.03
2018-01-21T02:27:48.180Z,42.50
2018-01-21T02:30:16.456Z,35.43
2018-01-21T02:32:44.773Z,35.33
2018-01-21T02:35:12.373Z,35.67
2018-01-21T02:37:40.481Z,19.93
2018-01-21T02:40:08.029Z,35.87
2018-01-21T02:42:35.628Z,38.63
2018-01-21T02:45:03.710Z,41.90
2018-01-21T02:47:31.454Z,40.93
2018-01-21T02:50:00.048Z,36.87
2018-01-21T02:52:27.685Z,44.90
2018-01-21T02:54:55.209Z,46.67
2018-01-21T02:57:23.909Z,43.63
2018-01-21T02:59:52.193Z,46.37
2018-01-21T03:02:20.480Z,56.57
2018-01-21T03:04:48.778Z,43.97
2018-01-21T03:07:16.325Z,44.07
2018-01-21T03:09:43.897Z,42.70
2018-01-21T03:12:11.560Z,46.43
2018-01-21T03:14:39.144Z,49.50
2018-01-21T03:17:06.731Z,45.97
2018-01-21T03:19:34.533Z,36.37
2018-01-21T03:22:02.517Z,39.97
2018-01-21T03:24:30.487Z,33.13
2018-01-21T03:26:58.025Z,37.10
2018-01-21T03:29:25.566Z,41.40
2018-01-21T03:31:53.858Z,34.40
2018-01-21T03:34:22.161Z,44.30
2018-01-21T03:36:49.693Z,35.70
2018-01-21T03:39:17.981Z,42.80
2018-01-21T03:41:45.521Z,37.23
2018-01-21T03:44:13.821Z,38.10
2018-01-21T03:46:41.410Z,39.03
2018-01-21T03:49:09.056Z,41.27
2018-01-21T03:51:36.797Z,39.27
2018-01-21T03:54:04.776Z,45.80
2018-01-21T03:56:32.862Z,45.90
2018-01-21T03:59:00.629Z,45.70
2018-01-21T04:01:28.171Z,44.27
2018-01-21T04:03:55.694Z,43.60
2018-01-21T04:06:24.006Z,44.20
2018-01-21T04:08:51.556Z,47.93
2018-01-21T04:11:20.173Z,60.60
2018-01-21T04:13:47.700Z,42.10
2018-01-21T04:16:15.980Z,49.10
2018-01-21T04:18:44.281Z,45.40
2018-01-21T04:21:11.853Z,44.93
2018-01-21T04:23:39.505Z,56.30
2018-01-21T04:26:07.329Z,52.53
2018-01-21T04:28:35.205Z,53.90
2018-01-21T04:31:03.108Z,47.60
2018-01-21T04:33:30.917Z,51.03
2018-01-21T04:35:58.538Z,46.83
2018-01-21T04:38:26.053Z,43.37
2018-01-21T04:40:54.336Z,51.80
2018-01-21T04:43:22.637Z,45.40
2018-01-21T04:45:50.176Z,43.00
2018-01-21T04:48:18.586Z,38.50
2018-01-21T04:50:46.177Z,38.40
2018-01-21T04:53:14.027Z,39.00
2018-01-21T04:55:41.705Z,43.03
2018-01-21T04:58:09.295Z,35.57
2018-01-21T05:00:36.974Z,41.33
2018-01-21T05:03:04.887Z,32.33
2018-01-21T05:05:32.612Z,26.93
2018-01-21T05:08:00.499Z,29.40
2018-01-21T05:10:28.022Z,34.50
2018-01-21T05:12:56.308Z,30.57
2018-01-21T05:15:24.613Z,30.83
2018-01-21T05:17:52.135Z,30.10
2018-01-21T05:20:19.676Z,30.57
2018-01-21T05:22:47.213Z,32.10
2018-01-21T05:25:14.765Z,33.10
2018-01-21T05:27:42.619Z,26.47
2018-01-21T05:30:10.312Z,36.60
2018-01-21T05:32:38.096Z,34.47
2018-01-21T05:35:06.136Z,32.23
2018-01-21T05:37:34.023Z,33.77
2018-01-21T05:40:02.525Z,37.53
2018-01-21T05:42:31.666Z,34.60
2018-01-21T05:44:59.238Z,36.57
2018-01-21T05:47:28.483Z,36.00
2018-01-21T05:49:56.623Z,38.13
2018-01-21T05:52:24.568Z,32.50
2018-01-21T05:54:52.116Z,34.80
2018-01-21T05:57:19.686Z,32.53
2018-01-21T05:59:47.206Z,31.43
2018-01-21T06:02:15.501Z,39.83
2018-01-21T06:04:43.813Z,35.10
2018-01-21T06:07:11.757Z,30.33
2018-01-21T06:09:40.125Z,31.43
2018-01-21T06:12:08.150Z,32.50
2018-01-21T06:14:37.215Z,32.93
2018-01-21T06:17:05.820Z,34.70
2018-01-21T06:19:34.179Z,32.27
2018-01-21T06:22:02.056Z,36.33
2018-01-21T06:24:29.711Z,33.63
2018-01-21T06:26:58.217Z,39.93
2018-01-21T06:29:26.466Z,33.30
2018-01-21T06:31:54.509Z,32.70
2018-01-21T06:34:22.088Z,37.37
2018-01-21T06:36:49.622Z,33.33
2018-01-21T06:39:17.914Z,32.50
2018-01-21T06:41:45.479Z,33.43
2018-01-21T06:44:13.032Z,36.43
2018-01-21T06:46:40.933Z,32.90
2018-01-21T06:49:09.277Z,34.60
2018-01-21T06:51:37.067Z,38.43
2018-01-21T06:54:05.068Z,34.93
2018-01-21T06:56:32.911Z,40.27
2018-01-21T06:59:00.793Z,43.30
2018-01-21T07:01:29.136Z,39.13
2018-01-21T07:03:57.037Z,43.70
2018-01-21T07:06:25.877Z,35.20
2018-01-21T07:08:54.914Z,39.33
2018-01-21T07:11:22.977Z,42.20
2018-01-21T07:13:50.553Z,42.80
2018-01-21T07:16:18.280Z,44.50
2018-01-21T07:18:45.831Z,44.60
2018-01-21T07:21:14.189Z,38.00
2018-01-21T07:23:41.744Z,46.60
2018-01-21T07:26:09.589Z,41.57
2018-01-21T07:28:37.236Z,41.40
2018-01-21T07:31:05.181Z,40.93
2018-01-21T07:33:33.105Z,39.70
2018-01-21T07:36:01.081Z,41.73
2018-01-21T07:38:28.695Z,39.17
2018-01-21T07:40:56.220Z,40.30
2018-01-21T07:43:24.537Z,38.93
2018-01-21T07:45:52.067Z,44.73
2018-01-21T07:48:19.619Z,38.83
2018-01-21T07:50:47.176Z,43.47
2018-01-21T07:53:14.723Z,39.80
2018-01-21T07:55:42.377Z,40.33
2018-01-21T07:58:10.875Z,37.67
2018-01-21T08:00:39.241Z,42.50
2018-01-21T08:03:07.441Z,39.27
2018-01-21T08:05:38.063Z,36.30
2018-01-21T08:08:06.972Z,41.50
2018-01-21T08:10:35.421Z,42.30
2018-01-21T08:13:07.943Z,38.13
2018-01-21T08:15:37.092Z,40.37
2018-01-21T08:18:05.285Z,39.43
2018-01-21T08:20:33.074Z,37.83
2018-01-21T08:23:02.248Z,44.90
2018-01-21T08:25:29.919Z,45.53
2018-01-21T08:27:57.456Z,47.30
2018-01-21T08:30:25.627Z,46.87
2018-01-21T08:32:53.369Z,40.50
2018-01-21T08:35:26.795Z,49.30
2018-01-21T08:38:00.238Z,47.67
2018-01-21T08:40:34.997Z,40.40
2018-01-21T08:43:03.204Z,40.60
2018-01-21T08:45:32.416Z,45.87
2018-01-21T08:48:00.886Z,44.73
2018-01-21T08:50:29.240Z,41.60
2018-01-21T08:52:57.447Z,37.80
2018-01-21T08:55:25.438Z,38.80
2018-01-21T08:57:53.104Z,35.93
2018-01-21T09:00:20.701Z,36.43
2018-01-21T09:02:48.262Z,32.83
2018-01-21T09:05:15.792Z,39.23
2018-01-21T09:07:43.320Z,36.17
2018-01-21T09:10:10.898Z,33.23
2018-01-21T09:12:38.624Z,37.30
2018-01-21T09:15:06.317Z,36.33
2018-01-21T09:17:34.601Z,36.30
2018-01-21T09:20:03.275Z,35.73
2018-01-21T09:22:32.448Z,35.70
2018-01-21T09:25:00.416Z,34.93
2018-01-21T09:27:27.997Z,40.90
2018-01-21T09:29:55.524Z,38.73
2018-01-21T09:32:23.073Z,32.50
2018-01-21T09:34:50.596Z,41.83
2018-01-21T09:37:18.933Z,32.43
2018-01-21T09:39:46.799Z,34.03
2018-01-21T09:42:15.346Z,33.57
2018-01-21T09:44:43.360Z,40.17
2018-01-21T09:47:11.321Z,36.10
2018-01-21T09:49:39.821Z,42.00
2018-01-21T09:52:08.426Z,43.10
2018-01-21T09:54:37.086Z,37.47
2018-01-21T09:57:05.218Z,35.80
2018-01-21T09:59:33.539Z,33.40
2018-01-21T10:02:01.192Z,34.50
2018-01-21T10:04:29.804Z,35.83
2018-01-21T10:06:59.102Z,31.53
2018-01-21T10:09:27.006Z,35.93
2018-01-21T10:11:55.560Z,34.07
2018-01-21T10:14:24.110Z,29.60
2018-01-21T10:16:53.533Z,26.07
2018-01-21T10:19:21.381Z,25.17
2018-01-21T10:21:49.146Z,27.43
2018-01-21T10:24:18.061Z,30.57
2018-01-21T10:26:45.694Z,23.60
2018-01-21T10:29:13.224Z,24.00
2018-01-21T10:31:41.030Z,30.53
2018-01-21T10:34:08.550Z,24.67
2018-01-21T10:36:36.854Z,21.23
2018-01-21T10:39:04.377Z,24.30
2018-01-21T10:41:31.925Z,21.73
2018-01-21T10:43:59.458Z,24.80
2018-01-21T10:46:27.326Z,23.77
2018-01-21T10:48:55.274Z,27.33
2018-01-21T10:51:23.462Z,25.17
2018-01-21T10:53:51.339Z,22.07
2018-01-21T10:56:19.402Z,21.10
2018-01-21T10:58:47.254Z,20.57
2018-01-21T11:01:14.929Z,17.00
2018-01-21T11:03:42.564Z,20.67
2018-01-21T11:06:10.242Z,20.53
2018-01-21T11:08:37.802Z,19.33
2018-01-21T11:11:05.375Z,18.40
2018-01-21T11:13:32.880Z,16.50
2018-01-21T11:16:00.426Z,21.33
2018-01-21T11:18:28.475Z,20.93
2018-01-21T11:20:56.421Z,20.23
2018-01-21T11:23:24.333Z,21.33
2018-01-21T11:25:52.480Z,16.23
2018-01-21T11:28:20.740Z,22.97
2018-01-21T11:30:49.285Z,20.20
2018-01-21T11:33:17.601Z,20.70
2018-01-21T11:35:45.936Z,20.97
2018-01-21T11:38:13.516Z,19.77
2018-01-21T11:40:41.829Z,20.77
2018-01-21T11:43:09.349Z,24.93
2018-01-21T11:45:37.676Z,20.03
2018-01-21T11:48:05.212Z,24.83
2018-01-21T11:50:32.756Z,21.57
2018-01-21T11:53:00.285Z,23.30
2018-01-21T11:55:27.997Z,21.73
2018-01-21T11:57:56.958Z,16.23
2018-01-21T12:00:29.396Z,13.60
2018-01-21T12:02:58.009Z,17.57
2018-01-21T12:05:25.727Z,23.73
2018-01-21T12:07:59.772Z,16.37
2018-01-21T12:10:27.429Z,17.50
2018-01-21T12:12:55.340Z,18.70
2018-01-21T12:15:23.721Z,18.93
2018-01-21T12:17:52.321Z,20.53
2018-01-21T12:20:21.249Z,21.83
2018-01-21T12:22:50.823Z,13.60
2018-01-21T12:25:20.646Z,19.53
2018-01-21T12:27:49.540Z,15.37
2018-01-21T12:30:17.529Z,14.23
2018-01-21T12:32:45.402Z,16.20
2018-01-21T12:35:12.921Z,16.83
2018-01-21T12:37:41.008Z,13.50
2018-01-21T12:40:08.549Z,16.50
2018-01-21T12:42:36.077Z,17.63
2018-01-21T12:45:03.618Z,16.03
2018-01-21T12:47:31.718Z,13.23
2018-01-21T12:50:00.117Z,20.60
2018-01-21T12:52:28.509Z,14.27
2018-01-21T12:54:56.486Z,15.03
2018-01-21T12:57:25.489Z,17.97
2018-01-21T12:59:55.034Z,13.60
2018-01-21T13:02:23.574Z,12.83
2018-01-21T13:04:51.642Z,15.23
2018-01-21T13:07:20.562Z,11.53
2018-01-21T13:09:49.732Z,15.40
2018-01-21T13:12:18.650Z,12.60
2018-01-21T13:14:47.105Z,14.27
2018-01-21T13:17:15.161Z,14.90
2018-01-21T13:19:42.844Z,14.83
2018-01-21T13:22:10.811Z,11.27
2018-01-21T13:24:38.381Z,12.53
2018-01-21T13:27:05.900Z,11.93
2018-01-21T13:29:34.514Z,12.60
2018-01-21T13:32:02.037Z,12.93
2018-01-21T13:34:31.085Z,11.50
2018-01-21T13:36:58.706Z,9.37
2018-01-21T13:39:26.589Z,14.50
2018-01-21T13:41:54.265Z,12.37
2018-01-21T13:44:22.580Z,13.77
2018-01-21T13:46:51.857Z,14.70
2018-01-21T13:49:21.779Z,14.03
2018-01-21T13:51:50.668Z,12.47
2018-01-21T13:54:19.439Z,19.43
2018-01-21T13:56:47.296Z,18.20
2018-01-21T13:59:16.496Z,14.97
2018-01-21T14:01:44.467Z,18.70
2018-01-21T14:04:13.061Z,15.90
2018-01-21T14:06:41.439Z,15.90
2018-01-21T14:09:08.980Z,19.03
2018-01-21T14:11:36.504Z,15.53
2018-01-21T14:14:04.527Z,15.10
2018-01-21T14:16:32.039Z,15.50
2018-01-21T14:19:00.325Z,15.63
2018-01-21T14:21:28.634Z,15.30
2018-01-21T14:23:56.907Z,14.23
2018-01-21T14:26:25.086Z,16.40
2018-01-21T14:28:53.322Z,16.37
2018-01-21T14:31:21.872Z,14.47
2018-01-21T14:33:50.326Z,14.83
2018-01-21T14:36:18.601Z,17.63
2018-01-21T14:38:46.716Z,16.63
2018-01-21T14:41:14.850Z,14.90
2018-01-21T14:43:42.615Z,16.23
2018-01-21T14:46:10.142Z,11.67
2018-01-21T14:48:38.786Z,12.20
2018-01-21T14:51:06.333Z,15.60
2018-01-21T14:53:33.865Z,14.83
2018-01-21T14:56:01.838Z,18.43
2018-01-21T14:58:29.378Z,15.53
2018-01-21T15:00:57.695Z,15.57
2018-01-21T15:03:25.560Z,18.97
2018-01-21T15:05:53.617Z,16.57
2018-01-21T15:08:22.205Z,22.43
2018-01-21T15:10:50.953Z,17.30
2018-01-21T15:13:20.175Z,16.83
2018-01-21T15:15:48.777Z,16.57
2018-01-21T15:18:18.590Z,12.87
2018-01-21T15:20:50.552Z,16.03
2018-01-21T15:23:18.727Z,12.43
2018-01-21T15:25:46.732Z,17.43
2018-01-21T15:28:14.998Z,13.17
2018-01-21T15:30:42.553Z,14.53
2018-01-21T15:33:10.254Z,18.53
2018-01-21T15:35:38.869Z,18.20
2018-01-21T15:38:06.385Z,13.33
2018-01-21T15:40:34.355Z,17.17
2018-01-21T15:43:01.886Z,15.33
2018-01-21T15:45:29.455Z,20.07
2018-01-21T15:47:57.708Z,13.30
2018-01-21T15:50:26.393Z,14.13
2018-01-21T15:52:54.568Z,18.80
2018-01-21T15:55:22.794Z,13.57
2018-01-21T15:57:51.293Z,12.17
2018-01-21T16:00:20.131Z,15.60
2018-01-21T16:02:49.312Z,15.53
2018-01-21T16:05:17.517Z,11.17
2018-01-21T16:07:45.586Z,11.33
2018-01-21T16:10:14.345Z,14.87
2018-01-21T16:12:42.697Z,13.97
2018-01-21T16:15:10.246Z,16.77
2018-01-21T16:17:38.553Z,11.50
2018-01-21T16:20:06.092Z,11.13
2018-01-21T16:22:34.424Z,11.40
2018-01-21T16:25:01.985Z,12.27
2018-01-21T16:27:29.556Z,12.83
2018-01-21T16:29:57.136Z,8.87
2018-01-21T16:32:25.358Z,16.10
2018-01-21T16:34:55.997Z,10.07
2018-01-21T16:37:36.207Z,10.10
2018-01-21T16:40:04.604Z,12.03
2018-01-21T16:42:32.497Z,12.27
2018-01-21T16:45:00.056Z,8.67
2018-01-21T16:47:27.923Z,11.73
2018-01-21T16:49:57.246Z,12.10
2018-01-21T16:52:24.946Z,12.57
2018-01-21T16:54:53.717Z,10.23
2018-01-21T16:57:23.838Z,13.50
2018-01-21T16:59:54.579Z,10.33
2018-01-21T17:02:25.857Z,10.73
2018-01-21T17:04:55.237Z,13.40
2018-01-21T17:07:22.873Z,12.53
2018-01-21T17:09:53.298Z,13.53
2018-01-21T17:12:26.948Z,14.43
2018-01-21T17:14:57.521Z,12.03
2018-01-21T17:17:26.393Z,16.00
2018-01-21T17:19:54.308Z,14.97
2018-01-21T17:22:22.128Z,9.77
2018-01-21T17:24:51.043Z,12.43
2018-01-21T17:27:19.602Z,12.77
2018-01-21T17:29:49.536Z,11.53
2018-01-21T17:32:17.410Z,14.53
2018-01-21T17:34:46.197Z,14.07
2018-01-21T17:37:14.049Z,13.83
2018-01-21T17:39:41.572Z,15.20
2018-01-21T17:42:09.881Z,15.23
2018-01-21T17:44:37.401Z,15.87
2018-01-21T17:47:05.709Z,21.33
2018-01-21T17:49:33.239Z,14.77
2018-01-21T17:52:01.876Z,20.37
2018-01-21T17:54:29.622Z,34.90
2018-01-21T17:56:57.624Z,30.60
2018-01-21T17:59:27.054Z,22.23
2018-01-21T18:01:56.606Z,51.00
2018-01-21T18:04:24.537Z,24.27
2018-01-21T18:06:53.362Z,32.07
2018-01-21T18:09:22.152Z,22.67
2018-01-21T18:11:51.540Z,25.27
2018-01-21T18:14:20.680Z,25.10
2018-01-21T18:16:51.207Z,21.57
2018-01-21T18:19:21.815Z,19.27
2018-01-21T18:21:50.101Z,25.67
2018-01-21T18:24:18.162Z,25.07
2018-01-21T18:26:46.963Z,36.93
2018-01-21T18:29:14.506Z,18.20
2018-01-21T18:31:42.030Z,18.93
2018-01-21T18:34:09.566Z,18.33
2018-01-21T18:36:37.107Z,16.67
2018-01-21T18:39:04.648Z,17.00
2018-01-21T18:41:32.517Z,15.27
2018-01-21T18:44:00.698Z,14.93
2018-01-21T18:46:29.102Z,15.93
2018-01-21T18:48:57.030Z,13.27
2018-01-21T18:51:25.853Z,19.93
2018-01-21T18:53:54.014Z,17.70
2018-01-21T18:56:22.074Z,13.17
2018-01-21T18:58:49.944Z,13.60
2018-01-21T19:01:19.800Z,13.87
2018-01-21T19:03:47.418Z,11.57
2018-01-21T19:06:16.425Z,15.23
2018-01-21T19:08:44.017Z,16.17
2018-01-21T19:11:11.508Z,16.53
2018-01-21T19:13:39.834Z,13.37
2018-01-21T19:16:07.421Z,13.57
2018-01-21T19:18:35.245Z,12.33
2018-01-21T19:21:02.778Z,13.53
2018-01-21T19:23:30.641Z,12.50
2018-01-21T19:25:58.821Z,13.10
2018-01-21T19:28:26.541Z,9.27
2018-01-21T19:30:55.131Z,9.67
2018-01-21T19:33:24.514Z,17.27
2018-01-21T19:35:52.589Z,10.50
2018-01-21T19:38:26.004Z,12.80
2018-01-21T19:41:05.599Z,12.77
2018-01-21T19:46:35.705Z,10.80
2018-01-21T19:49:04.241Z,11.10
2018-01-21T19:51:31.782Z,10.63
2018-01-21T19:53:59.372Z,12.83
2018-01-21T19:56:26.998Z,12.80
2018-01-21T19:58:54.872Z,14.07
2018-01-21T20:01:22.737Z,13.63
2018-01-21T20:03:52.590Z,14.73
2018-01-21T20:06:21.544Z,27.47
2018-01-21T20:08:49.827Z,12.83
2018-01-21T20:11:17.426Z,16.50
2018-01-21T20:13:47.192Z,16.03
2018-01-21T20:16:14.750Z,13.60
2018-01-21T20:18:42.280Z,18.13
2018-01-21T20:21:09.817Z,18.20
2018-01-21T20:23:37.389Z,15.73
2018-01-21T20:26:04.993Z,13.27
2018-01-21T20:28:32.656Z,11.20
2018-01-21T20:31:00.370Z,13.37
2018-01-21T20:33:27.971Z,13.47
2018-01-21T20:35:55.996Z,11.23
2018-01-21T20:38:23.818Z,10.10
2018-01-21T20:40:51.885Z,11.80
2018-01-21T20:43:19.905Z,10.90
2018-01-21T20:45:47.438Z,9.87
2018-01-21T20:48:15.443Z,7.10
2018-01-21T20:50:43.003Z,9.57
2018-01-21T20:53:16.591Z,6.60
2018-01-21T20:55:45.230Z,8.23
2018-01-21T20:58:13.306Z,7.07
2018-01-21T21:00:40.856Z,8.27
2018-01-21T21:03:08.494Z,8.10
2018-01-21T21:05:36.825Z,6.37
2018-01-21T21:08:04.470Z,6.70
2018-01-21T21:10:31.981Z,4.77
2018-01-21T21:13:00.441Z,7.03
2018-01-21T21:15:28.891Z,5.00
2018-01-21T21:17:59.623Z,8.70
2018-01-21T21:20:27.233Z,7.53
2018-01-21T21:22:55.825Z,5.70
2018-01-21T21:25:23.657Z,8.03
2018-01-21T21:27:52.811Z,5.07
2018-01-21T21:30:21.100Z,5.43
2018-01-21T21:32:48.878Z,3.67
2018-01-21T21:35:16.443Z,5.30
2018-01-21T21:37:43.970Z,6.97
2018-01-21T21:40:12.289Z,4.27
2018-01-21T21:42:39.824Z,7.90
2018-01-21T21:45:08.547Z,5.93
2018-01-21T21:47:36.393Z,7.03
2018-01-21T21:50:03.985Z,8.13
2018-01-21T21:52:31.519Z,5.20
2018-01-21T21:54:59.057Z,9.60
2018-01-21T21:57:26.607Z,8.60
2018-01-21T21:59:54.125Z,5.93
2018-01-21T22:02:21.650Z,5.17
2018-01-21T22:04:49.182Z,4.87
2018-01-21T22:07:17.894Z,7.63
2018-01-21T22:09:46.501Z,6.63
2018-01-21T22:12:14.391Z,6.90
2018-01-21T22:14:42.709Z,6.33
2018-01-21T22:17:10.794Z,8.13
2018-01-21T22:19:39.709Z,6.13
2018-01-21T22:22:07.860Z,5.00
2018-01-21T22:24:35.387Z,8.73
2018-01-21T22:27:02.957Z,4.73
2018-01-21T22:29:30.478Z,9.57
2018-01-21T22:31:58.264Z,6.30
2018-01-21T22:34:27.074Z,6.13
2018-01-21T22:36:54.621Z,6.23
2018-01-21T22:39:23.033Z,5.57
2018-01-21T22:41:50.557Z,5.03
2018-01-21T22:44:19.018Z,6.93
2018-01-21T22:46:47.550Z,9.90
2018-01-21T22:49:15.213Z,4.63
2018-01-21T22:51:42.844Z,9.00
2018-01-21T22:54:10.736Z,7.03
2018-01-21T22:56:39.241Z,6.63
2018-01-21T22:59:08.133Z,5.27
2018-01-21T23:01:36.772Z,7.50
2018-01-21T23:04:04.329Z,7.23
2018-01-21T23:06:32.637Z,7.30
2018-01-21T23:09:00.153Z,9.07
2018-01-21T23:11:27.679Z,6.23
2018-01-21T23:13:55.213Z,5.20
2018-01-21T23:16:22.734Z,8.60
2018-01-21T23:18:50.270Z,9.57
2018-01-21T23:21:17.901Z,7.83
2018-01-21T23:23:46.182Z,7.80
2018-01-21T23:26:13.828Z,8.77
2018-01-21T23:28:41.486Z,6.97
2018-01-21T23:31:09.249Z,7.67
2018-01-21T23:33:37.514Z,7.80
2018-01-21T23:36:05.085Z,7.20
2018-01-21T23:38:32.605Z,7.37
2018-01-21T23:41:00.729Z,11.33
2018-01-21T23:43:28.547Z,12.33
2018-01-21T23:45:56.847Z,9.60
2018-01-21T23:48:25.140Z,9.00
2018-01-21T23:50:52.656Z,8.70
2018-01-21T23:53:20.198Z,7.00
2018-01-21T23:55:47.717Z,5.20
2018-01-21T23:58:16.038Z,5.70
